Time;durP1;ratioP1;P1;durP2;ratioP2;P2;SDS_P1;SDS_P2;PMS_P1;PMS_P2;Temp;Humidity;BMP_temperature;BMP_pressure;BME280_temperature;BME280_humidity;BME280_pressure;Samples;Min_cycle;Max_cycle;Signal;HPM_P1;HPM_P2
2023/09/07 00:00:36;;;;;;;8.10;3.92;;;;;;;;;;5031221;28;20025;-69
2023/09/07 00:03:01;;;;;;;10.38;4.43;;;;;;;;;;5030622;28;20028;-69
2023/09/07 00:05:27;;;;;;;13.93;5.18;;;;;;;;;;5030175;28;20021;-68
2023/09/07 00:07:52;;;;;;;11.95;4.72;;;;;;;;;;5030195;28;20084;-69
2023/09/07 00:10:17;;;;;;;8.35;4.50;;;;;;;;;;5032263;28;20029;-65
2023/09/07 00:12:43;;;;;;;10.10;4.03;;;;;;;;;;5031452;28;20014;-69
2023/09/07 00:15:10;;;;;;;13.05;4.80;;;;;;;;;;5031401;28;20428;-68
2023/09/07 00:17:35;;;;;;;9.70;4.50;;;;;;;;;;5030570;28;20044;-69
2023/09/07 00:20:01;;;;;;;8.05;4.45;;;;;;;;;;5031304;28;20114;-69
2023/09/07 00:22:26;;;;;;;9.55;4.38;;;;;;;;;;5031145;28;20017;-68
2023/09/07 00:24:51;;;;;;;10.10;4.55;;;;;;;;;;5031114;28;20075;-70
2023/09/07 00:27:16;;;;;;;9.10;4.60;;;;;;;;;;5030725;28;20033;-68
2023/09/07 00:29:42;;;;;;;7.53;4.05;;;;;;;;;;5026400;28;20020;-69
2023/09/07 00:32:07;;;;;;;11.50;4.67;;;;;;;;;;5030930;28;20032;-65
2023/09/07 00:34:32;;;;;;;16.08;5.20;;;;;;;;;;5031117;28;20242;-68
2023/09/07 00:36:58;;;;;;;8.77;4.43;;;;;;;;;;5029801;28;20438;-68
2023/09/07 00:39:23;;;;;;;15.90;4.38;;;;;;;;;;5042227;23;20498;-66
2023/09/07 00:41:49;;;;;;;12.75;5.13;;;;;;;;;;5032103;28;20280;-66
2023/09/07 00:44:14;;;;;;;8.10;4.38;;;;;;;;;;5032287;28;20106;-66
2023/09/07 00:46:39;;;;;;;7.43;4.15;;;;;;;;;;5031114;28;20021;-67
2023/09/07 00:49:04;;;;;;;13.10;4.28;;;;;;;;;;5032258;28;20071;-65
2023/09/07 00:51:30;;;;;;;10.85;5.30;;;;;;;;;;5028934;28;20109;-67
2023/09/07 00:53:56;;;;;;;9.63;4.70;;;;;;;;;;5031446;28;20028;-68
2023/09/07 00:56:21;;;;;;;13.15;4.35;;;;;;;;;;5026360;28;20155;-67
2023/09/07 00:58:46;;;;;;;13.52;4.25;;;;;;;;;;5031983;28;20054;-64
2023/09/07 01:01:11;;;;;;;8.00;4.35;;;;;;;;;;5030724;28;20033;-67
2023/09/07 01:03:37;;;;;;;10.23;4.43;;;;;;;;;;5031446;28;20029;-66
2023/09/07 01:06:15;;;;;;;12.02;5.15;;;;;;;;;;5030504;28;20021;-67
2023/09/07 01:08:41;;;;;;;;;;;;;;;;;;5031239;28;20102;-67
2023/09/07 01:11:16;;;;;;;8.52;4.30;;;;;;;;;;5031191;28;20523;-63
2023/09/07 01:13:42;;;;;;;9.13;4.80;;;;;;;;;;5031229;28;20068;-66
2023/09/07 01:16:07;;;;;;;8.75;4.45;;;;;;;;;;5031844;28;20025;-62
2023/09/07 01:18:33;;;;;;;8.57;4.53;;;;;;;;;;5031960;28;20013;-67
2023/09/07 01:20:59;;;;;;;9.07;4.63;;;;;;;;;;5031600;28;20022;-65
2023/09/07 01:23:24;;;;;;;14.43;5.03;;;;;;;;;;5032407;28;20097;-66
2023/09/07 01:25:50;;;;;;;10.20;4.40;;;;;;;;;;5031358;28;20256;-66
2023/09/07 01:28:20;;;;;;;12.00;4.85;;;;;;;;;;5022042;28;20025;-65
2023/09/07 01:30:46;;;;;;;12.07;4.72;;;;;;;;;;5016314;28;20409;-65
2023/09/07 01:33:11;;;;;;;9.27;4.43;;;;;;;;;;5031491;28;20395;-66
2023/09/07 01:35:38;;;;;;;9.07;4.70;;;;;;;;;;5031695;28;20020;-62
2023/09/07 01:38:03;;;;;;;13.10;5.80;;;;;;;;;;5032036;28;20029;-66
2023/09/07 01:40:28;;;;;;;8.20;4.75;;;;;;;;;;5032074;28;20033;-64
2023/09/07 01:42:54;;;;;;;9.63;5.10;;;;;;;;;;5032397;28;20478;-66
2023/09/07 01:45:19;;;;;;;16.40;5.95;;;;;;;;;;5030517;28;20030;-64
2023/09/07 01:47:44;;;;;;;15.70;5.22;;;;;;;;;;5031777;28;20029;-64
2023/09/07 01:50:10;;;;;;;8.85;4.97;;;;;;;;;;5032872;28;20021;-65
2023/09/07 01:52:35;;;;;;;9.05;5.13;;;;;;;;;;5032720;28;20024;-66
2023/09/07 01:55:00;;;;;;;8.68;4.70;;;;;;;;;;5032394;28;20067;-65
2023/09/07 01:57:29;;;;;;;11.70;5.70;;;;;;;;;;5028299;28;20394;-65
2023/09/07 01:59:54;;;;;;;15.35;5.88;;;;;;;;;;5031758;28;20021;-65
2023/09/07 02:02:19;;;;;;;11.52;5.32;;;;;;;;;;5031503;28;20021;-66
2023/09/07 02:04:45;;;;;;;9.50;5.20;;;;;;;;;;5031036;28;20494;-66
2023/09/07 02:07:11;;;;;;;11.55;5.82;;;;;;;;;;5025999;28;20022;-67
2023/09/07 02:09:36;;;;;;;10.98;6.05;;;;;;;;;;5029831;28;20083;-65
2023/09/07 02:12:03;;;;;;;13.23;6.22;;;;;;;;;;5031017;28;20467;-65
2023/09/07 02:14:29;;;;;;;13.90;5.70;;;;;;;;;;5029929;28;20063;-65
2023/09/07 02:16:54;;;;;;;9.15;5.50;;;;;;;;;;5030369;28;20055;-67
2023/09/07 02:19:22;;;;;;;11.50;5.68;;;;;;;;;;5030677;28;20032;-67
2023/09/07 02:21:47;;;;;;;10.30;5.43;;;;;;;;;;5031392;28;20056;-67
2023/09/07 02:24:13;;;;;;;13.20;5.55;;;;;;;;;;5030903;28;20464;-67
2023/09/07 02:26:43;;;;;;;13.38;4.95;;;;;;;;;;5030274;28;20025;-67
2023/09/07 02:29:08;;;;;;;16.65;5.93;;;;;;;;;;5018324;28;20028;-64
2023/09/07 02:31:34;;;;;;;15.02;5.43;;;;;;;;;;5022108;28;20010;-67
2023/09/07 02:33:59;;;;;;;14.13;5.85;;;;;;;;;;5030500;28;20061;-67
2023/09/07 02:36:24;;;;;;;17.02;6.28;;;;;;;;;;5030028;28;20025;-68
2023/09/07 02:38:49;;;;;;;10.25;5.78;;;;;;;;;;5030486;28;20034;-67
2023/09/07 02:41:14;;;;;;;11.48;5.85;;;;;;;;;;5030298;28;20032;-67
2023/09/07 02:43:40;;;;;;;17.40;6.03;;;;;;;;;;5029926;28;20021;-67
2023/09/07 02:46:05;;;;;;;10.20;5.88;;;;;;;;;;5029848;28;20529;-65
2023/09/07 02:48:30;;;;;;;11.10;5.60;;;;;;;;;;5030304;28;20596;-66
2023/09/07 02:50:58;;;;;;;10.73;5.80;;;;;;;;;;5029930;28;20028;-66
2023/09/07 02:53:23;;;;;;;11.20;5.78;;;;;;;;;;5030211;28;20028;-66
2023/09/07 02:55:49;;;;;;;9.57;5.25;;;;;;;;;;5028213;28;20096;-67
2023/09/07 02:58:14;;;;;;;12.30;5.72;;;;;;;;;;5021714;28;20057;-66
2023/09/07 03:00:44;;;;;;;14.63;8.88;;;;;;;;;;5022186;28;20029;-67
2023/09/07 03:03:09;;;;;;;12.93;7.45;;;;;;;;;;5028875;28;20029;-66
2023/09/07 03:05:34;;;;;;;19.25;8.98;;;;;;;;;;5030250;28;20029;-66
2023/09/07 03:07:59;;;;;;;18.02;8.23;;;;;;;;;;5029410;28;20029;-66
2023/09/07 03:10:25;;;;;;;15.60;7.55;;;;;;;;;;5030076;28;20017;-65
2023/09/07 03:12:51;;;;;;;16.38;7.65;;;;;;;;;;5029208;28;20021;-66
2023/09/07 03:15:16;;;;;;;9.88;5.72;;;;;;;;;;5030299;28;20295;-67
2023/09/07 03:17:42;;;;;;;14.23;5.82;;;;;;;;;;5025008;28;20192;-67
2023/09/07 03:20:16;;;;;;;15.25;5.97;;;;;;;;;;5021964;28;20402;-64
2023/09/07 03:22:42;;;;;;;11.13;6.38;;;;;;;;;;5025473;28;20031;-67
2023/09/07 03:25:08;;;;;;;11.27;6.40;;;;;;;;;;5020581;28;20116;-66
2023/09/07 03:27:33;;;;;;;14.23;6.88;;;;;;;;;;5026997;28;20518;-67
2023/09/07 03:29:58;;;;;;;22.63;9.38;;;;;;;;;;5024959;28;20022;-63
2023/09/07 03:32:23;;;;;;;15.68;8.00;;;;;;;;;;5028128;28;20220;-67
2023/09/07 03:34:49;;;;;;;19.42;6.75;;;;;;;;;;5029244;28;20033;-67
2023/09/07 03:37:14;;;;;;;13.55;6.32;;;;;;;;;;5027298;28;20017;-66
2023/09/07 03:39:39;;;;;;;26.00;7.88;;;;;;;;;;5024214;28;20034;-67
2023/09/07 03:42:07;;;;;;;17.52;7.63;;;;;;;;;;5027859;28;20454;-66
2023/09/07 03:44:33;;;;;;;17.40;7.63;;;;;;;;;;5029702;28;20026;-66
2023/09/07 03:46:58;;;;;;;14.32;7.40;;;;;;;;;;5028152;28;20436;-64
2023/09/07 03:49:23;;;;;;;12.10;6.25;;;;;;;;;;5029066;28;20071;-69
2023/09/07 03:51:48;;;;;;;10.38;7.10;;;;;;;;;;5029097;28;20037;-66
2023/09/07 03:54:13;;;;;;;20.30;7.40;;;;;;;;;;5028820;28;20016;-66
2023/09/07 03:56:39;;;;;;;14.55;7.45;;;;;;;;;;5025466;28;20022;-66
2023/09/07 03:59:04;;;;;;;12.13;6.68;;;;;;;;;;5029994;28;20013;-62
2023/09/07 04:01:30;;;;;;;15.68;7.30;;;;;;;;;;5029139;28;20597;-67
2023/09/07 04:03:55;;;;;;;16.88;7.47;;;;;;;;;;5028473;28;20028;-65
2023/09/07 04:06:20;;;;;;;14.43;6.97;;;;;;;;;;5029278;28;20030;-67
2023/09/07 04:08:45;;;;;;;14.38;7.30;;;;;;;;;;5029737;28;20467;-64
2023/09/07 04:11:10;;;;;;;11.83;6.67;;;;;;;;;;5029114;28;20105;-68
2023/09/07 04:13:36;;;;;;;14.68;7.40;;;;;;;;;;5028631;28;20767;-64
2023/09/07 04:16:01;;;;;;;14.02;7.65;;;;;;;;;;5029072;28;20010;-68
2023/09/07 04:18:26;;;;;;;16.00;6.75;;;;;;;;;;5028778;28;20078;-65
2023/09/07 04:20:51;;;;;;;13.25;6.00;;;;;;;;;;5028973;28;20096;-67
2023/09/07 04:23:16;;;;;;;13.88;7.05;;;;;;;;;;5029050;28;20029;-65
2023/09/07 04:25:42;;;;;;;12.40;7.30;;;;;;;;;;5028616;28;20680;-67
2023/09/07 04:28:07;;;;;;;22.73;7.15;;;;;;;;;;5021778;28;20508;-67
2023/09/07 04:30:36;;;;;;;13.18;6.93;;;;;;;;;;5014334;28;20383;-65
2023/09/07 04:33:01;;;;;;;15.38;6.90;;;;;;;;;;5020123;28;20028;-67
2023/09/07 04:35:30;;;;;;;12.63;7.28;;;;;;;;;;5029024;28;20017;-67
2023/09/07 04:37:56;;;;;;;17.02;7.97;;;;;;;;;;5030414;28;20025;-66
2023/09/07 04:40:21;;;;;;;14.30;6.60;;;;;;;;;;5033385;28;20037;-67
2023/09/07 04:42:47;;;;;;;15.07;7.93;;;;;;;;;;5031097;28;20029;-68
2023/09/07 04:45:12;;;;;;;11.98;6.55;;;;;;;;;;5032329;28;20056;-67
2023/09/07 04:47:37;;;;;;;13.23;6.90;;;;;;;;;;5031514;28;20033;-66
2023/09/07 04:50:04;;;;;;;14.68;7.15;;;;;;;;;;5027638;28;20413;-66
2023/09/07 04:52:29;;;;;;;19.13;6.93;;;;;;;;;;5031470;28;20025;-67
2023/09/07 04:54:54;;;;;;;11.15;6.53;;;;;;;;;;5032272;28;20028;-67
2023/09/07 04:57:20;;;;;;;16.13;8.05;;;;;;;;;;5030756;28;20120;-66
2023/09/07 04:59:45;;;;;;;14.85;7.30;;;;;;;;;;5032266;28;20021;-63
2023/09/07 05:02:11;;;;;;;15.85;8.05;;;;;;;;;;5030372;28;20052;-66
2023/09/07 05:04:37;;;;;;;11.95;7.13;;;;;;;;;;5031662;28;20104;-67
2023/09/07 05:07:02;;;;;;;18.17;7.43;;;;;;;;;;5031551;28;20511;-65
2023/09/07 05:09:29;;;;;;;21.05;7.13;;;;;;;;;;5032355;28;20022;-67
2023/09/07 05:11:55;;;;;;;15.10;8.57;;;;;;;;;;5032553;28;20032;-65
2023/09/07 05:14:20;;;;;;;15.57;7.88;;;;;;;;;;5032521;28;20097;-66
2023/09/07 05:16:45;;;;;;;17.13;7.65;;;;;;;;;;5032424;28;20056;-67
2023/09/07 05:19:10;;;;;;;15.88;8.20;;;;;;;;;;5034457;28;20048;-68
2023/09/07 05:21:36;;;;;;;13.50;7.70;;;;;;;;;;5032088;28;20029;-67
2023/09/07 05:24:01;;;;;;;14.98;8.02;;;;;;;;;;5032131;28;20017;-66
2023/09/07 05:26:26;;;;;;;14.55;8.63;;;;;;;;;;5030552;28;20021;-66
2023/09/07 05:28:51;;;;;;;19.52;7.55;;;;;;;;;;5031285;28;20017;-66
2023/09/07 05:31:17;;;;;;;20.42;7.88;;;;;;;;;;5022168;28;20079;-67
2023/09/07 05:33:42;;;;;;;20.75;9.30;;;;;;;;;;5030612;28;20097;-68
2023/09/07 05:36:07;;;;;;;13.82;7.43;;;;;;;;;;5028882;28;20042;-67
2023/09/07 05:38:32;;;;;;;16.08;8.38;;;;;;;;;;5031566;28;20068;-68
2023/09/07 05:40:58;;;;;;;16.52;7.90;;;;;;;;;;5030490;28;20029;-67
2023/09/07 05:43:23;;;;;;;14.23;7.82;;;;;;;;;;5032295;28;20028;-64
2023/09/07 05:45:48;;;;;;;17.63;7.95;;;;;;;;;;5032010;28;20021;-69
2023/09/07 05:48:16;;;;;;;18.58;7.70;;;;;;;;;;5031212;28;20052;-68
2023/09/07 05:50:41;;;;;;;22.90;8.30;;;;;;;;;;5031476;28;20013;-67
2023/09/07 05:53:07;;;;;;;15.07;7.75;;;;;;;;;;5032203;28;20028;-69
2023/09/07 05:55:32;;;;;;;14.68;9.20;;;;;;;;;;5031771;28;20061;-68
2023/09/07 05:57:58;;;;;;;20.10;8.95;;;;;;;;;;5031434;28;20059;-68
2023/09/07 06:00:23;;;;;;;14.35;7.88;;;;;;;;;;5031382;28;20079;-69
2023/09/07 06:02:49;;;;;;;19.85;8.32;;;;;;;;;;5025980;28;20180;-69
2023/09/07 06:05:14;;;;;;;16.58;8.52;;;;;;;;;;5024995;28;20049;-66
2023/09/07 06:07:39;;;;;;;18.20;7.25;;;;;;;;;;5030725;28;20017;-68
2023/09/07 06:10:08;;;;;;;13.38;7.47;;;;;;;;;;5030857;28;20022;-68
2023/09/07 06:12:33;;;;;;;18.60;8.00;;;;;;;;;;5031284;28;20028;-66
2023/09/07 06:14:59;;;;;;;14.43;7.47;;;;;;;;;;5030926;28;20033;-67
2023/09/07 06:17:25;;;;;;;19.63;8.10;;;;;;;;;;5031051;28;20028;-68
2023/09/07 06:19:50;;;;;;;12.82;7.82;;;;;;;;;;5031677;28;20394;-66
2023/09/07 06:22:15;;;;;;;18.05;8.35;;;;;;;;;;5031413;28;20566;-66
2023/09/07 06:24:40;;;;;;;14.23;8.45;;;;;;;;;;5030524;28;20018;-68
2023/09/07 06:27:05;;;;;;;61.80;11.35;;;;;;;;;;5031622;28;20583;-69
2023/09/07 06:29:31;;;;;;;21.40;7.45;;;;;;;;;;5017468;28;20022;-67
2023/09/07 06:31:56;;;;;;;23.90;8.30;;;;;;;;;;5022741;28;20033;-70
2023/09/07 06:34:21;;;;;;;16.13;7.90;;;;;;;;;;5031366;28;20017;-66
2023/09/07 06:36:46;;;;;;;15.15;8.40;;;;;;;;;;5029973;28;20454;-70
2023/09/07 06:39:12;;;;;;;14.75;7.10;;;;;;;;;;5032181;28;20069;-68
2023/09/07 06:41:37;;;;;;;18.33;7.70;;;;;;;;;;5029956;28;20033;-69
2023/09/07 06:44:02;;;;;;;19.98;7.28;;;;;;;;;;5028785;28;20017;-68
2023/09/07 06:46:27;;;;;;;16.00;7.35;;;;;;;;;;5029465;28;20040;-70
2023/09/07 06:48:52;;;;;;;13.32;6.95;;;;;;;;;;5031410;28;20044;-67
2023/09/07 06:51:18;;;;;;;15.30;6.55;;;;;;;;;;5024464;28;20014;-69
2023/09/07 06:53:43;;;;;;;15.45;6.65;;;;;;;;;;5028882;28;20017;-70
2023/09/07 06:56:10;;;;;;;15.10;6.90;;;;;;;;;;5030781;28;20101;-66
2023/09/07 06:58:35;;;;;;;9.55;5.82;;;;;;;;;;5030167;28;20031;-69
2023/09/07 07:01:01;;;;;;;10.90;5.63;;;;;;;;;;5029861;28;20428;-69
2023/09/07 07:03:27;;;;;;;15.07;6.18;;;;;;;;;;5029566;28;20025;-68
2023/09/07 07:05:53;;;;;;;11.10;5.18;;;;;;;;;;5030545;28;20029;-69
2023/09/07 07:08:18;;;;;;;11.85;5.57;;;;;;;;;;5028720;28;20490;-66
2023/09/07 07:10:43;;;;;;;11.32;5.35;;;;;;;;;;5030481;28;20459;-68
2023/09/07 07:13:09;;;;;;;12.43;5.72;;;;;;;;;;5029683;28;20021;-67
2023/09/07 07:15:35;;;;;;;16.35;5.10;;;;;;;;;;5029380;28;20048;-69
2023/09/07 07:18:00;;;;;;;9.82;4.80;;;;;;;;;;5029594;28;20019;-70
2023/09/07 07:20:26;;;;;;;8.35;4.68;;;;;;;;;;5030876;28;20025;-68
2023/09/07 07:22:51;;;;;;;14.38;5.85;;;;;;;;;;5030285;28;20442;-70
2023/09/07 07:25:17;;;;;;;13.13;5.60;;;;;;;;;;5024956;28;20025;-67
2023/09/07 07:27:42;;;;;;;10.90;5.00;;;;;;;;;;5024706;28;20029;-68
2023/09/07 07:30:07;;;;;;;10.63;5.10;;;;;;;;;;5015317;28;20406;-64
2023/09/07 07:32:33;;;;;;;12.80;5.60;;;;;;;;;;5024256;28;20053;-67
2023/09/07 07:34:58;;;;;;;10.43;5.07;;;;;;;;;;5029118;28;20391;-68
2023/09/07 07:37:24;;;;;;;14.97;5.50;;;;;;;;;;5027964;28;20259;-68
2023/09/07 07:39:49;;;;;;;10.77;5.00;;;;;;;;;;5028739;28;20328;-66
2023/09/07 07:42:14;;;;;;;12.48;6.45;;;;;;;;;;5028440;28;20021;-68
2023/09/07 07:44:39;;;;;;;12.23;4.60;;;;;;;;;;5022954;28;20100;-65
2023/09/07 07:47:04;;;;;;;15.00;5.15;;;;;;;;;;5028162;28;20100;-70
2023/09/07 07:49:31;;;;;;;15.23;5.13;;;;;;;;;;5027975;28;20049;-68
2023/09/07 07:51:57;;;;;;;12.80;5.28;;;;;;;;;;5029632;28;20041;-68
2023/09/07 07:54:24;;;;;;;12.68;4.85;;;;;;;;;;5029328;28;20120;-69
2023/09/07 07:56:49;;;;;;;9.43;4.70;;;;;;;;;;5027389;28;20459;-68
2023/09/07 07:59:15;;;;;;;10.55;4.68;;;;;;;;;;5027827;28;20040;-69
2023/09/07 08:01:40;;;;;;;23.35;5.47;;;;;;;;;;5028550;28;20029;-69
2023/09/07 08:04:06;;;;;;;10.02;5.00;;;;;;;;;;5028765;28;20511;-70
2023/09/07 08:06:32;;;;;;;13.88;4.72;;;;;;;;;;5029040;28;20113;-68
2023/09/07 08:08:57;;;;;;;10.50;4.80;;;;;;;;;;5028630;28;20096;-69
2023/09/07 08:11:22;;;;;;;13.52;5.28;;;;;;;;;;5030219;28;20032;-68
2023/09/07 08:13:48;;;;;;;10.55;4.70;;;;;;;;;;5031793;28;20379;-67
2023/09/07 08:16:13;;;;;;;10.68;4.90;;;;;;;;;;5031651;28;20025;-69
2023/09/07 08:18:39;;;;;;;10.57;4.68;;;;;;;;;;5032125;28;20057;-63
2023/09/07 08:21:05;;;;;;;9.38;4.72;;;;;;;;;;5031417;28;20093;-68
2023/09/07 08:23:31;;;;;;;15.45;4.60;;;;;;;;;;5033698;28;20388;-68
2023/09/07 08:25:56;;;;;;;13.43;4.85;;;;;;;;;;5032744;28;20025;-65
2023/09/07 08:28:22;;;;;;;9.50;4.57;;;;;;;;;;5020902;28;20032;-68
2023/09/07 08:30:49;;;;;;;14.85;4.78;;;;;;;;;;5020454;28;20022;-68
2023/09/07 08:33:14;;;;;;;16.90;4.78;;;;;;;;;;5031537;28;20493;-68
2023/09/07 08:35:43;;;;;;;13.18;4.30;;;;;;;;;;5032511;28;20030;-67
2023/09/07 08:38:09;;;;;;;13.38;4.53;;;;;;;;;;5032061;28;20475;-68
2023/09/07 08:40:35;;;;;;;9.40;4.32;;;;;;;;;;5031942;28;20032;-68
2023/09/07 08:43:03;;;;;;;13.90;5.53;;;;;;;;;;5027199;28;20442;-66
2023/09/07 08:45:29;;;;;;;14.45;4.68;;;;;;;;;;5025678;28;20525;-65
2023/09/07 08:47:54;;;;;;;17.45;4.72;;;;;;;;;;5032215;28;20025;-69
2023/09/07 08:50:20;;;;;;;10.77;4.78;;;;;;;;;;5032427;28;20026;-68
2023/09/07 08:52:46;;;;;;;14.32;5.65;;;;;;;;;;5032626;28;20109;-69
2023/09/07 08:55:12;;;;;;;8.88;4.53;;;;;;;;;;5032711;28;20093;-68
2023/09/07 08:57:37;;;;;;;17.45;4.78;;;;;;;;;;5031929;28;20466;-68
2023/09/07 09:00:07;;;;;;;12.00;4.22;;;;;;;;;;5031383;28;20017;-67
2023/09/07 09:02:33;;;;;;;9.48;3.97;;;;;;;;;;5032785;28;20017;-68
2023/09/07 09:04:58;;;;;;;7.47;3.93;;;;;;;;;;5033435;28;20371;-69
2023/09/07 09:07:24;;;;;;;13.02;4.88;;;;;;;;;;5031267;28;20764;-67
2023/09/07 09:09:49;;;;;;;12.32;3.88;;;;;;;;;;5033013;28;20017;-64
2023/09/07 09:12:15;;;;;;;10.70;4.18;;;;;;;;;;5033178;28;20083;-68
2023/09/07 09:14:46;;;;;;;13.13;4.38;;;;;;;;;;5032646;28;20021;-68
2023/09/07 09:17:12;;;;;;;10.35;4.57;;;;;;;;;;5031463;28;20482;-69
2023/09/07 09:19:38;;;;;;;12.82;4.10;;;;;;;;;;5031711;28;20026;-72
2023/09/07 09:22:03;;;;;;;13.07;3.63;;;;;;;;;;5031978;28;20104;-68
2023/09/07 09:24:31;;;;;;;11.60;4.32;;;;;;;;;;5032320;28;20108;-65
2023/09/07 09:26:57;;;;;;;7.20;3.70;;;;;;;;;;5031549;28;20025;-69
2023/09/07 09:29:23;;;;;;;11.40;4.03;;;;;;;;;;5018634;28;20029;-68
2023/09/07 09:31:48;;;;;;;8.10;3.90;;;;;;;;;;5028381;28;20068;-68
2023/09/07 09:34:13;;;;;;;8.98;3.63;;;;;;;;;;5031680;28;20021;-66
2023/09/07 09:36:41;;;;;;;8.73;4.28;;;;;;;;;;5030613;28;20685;-65
2023/09/07 09:39:06;;;;;;;9.73;3.60;;;;;;;;;;5031438;28;20025;-70
2023/09/07 09:41:32;;;;;;;8.40;3.45;;;;;;;;;;5031205;28;20027;-69
2023/09/07 09:43:58;;;;;;;8.32;4.00;;;;;;;;;;5031613;28;20037;-68
2023/09/07 09:46:24;;;;;;;7.57;4.05;;;;;;;;;;5027417;28;20108;-69
2023/09/07 09:48:50;;;;;;;7.07;3.90;;;;;;;;;;5031702;28;20083;-68
2023/09/07 09:51:16;;;;;;;10.63;4.13;;;;;;;;;;5030494;28;20021;-70
2023/09/07 09:53:44;;;;;;;9.50;3.90;;;;;;;;;;5032916;28;20013;-70
2023/09/07 09:56:10;;;;;;;;;;;;;;;;;;5032292;28;20098;-69
2023/09/07 09:58:35;;;;;;;10.38;3.97;;;;;;;;;;5029808;28;19979;-69
2023/09/07 10:01:00;;;;;;;12.35;4.00;;;;;;;;;;5031782;28;20028;-68
2023/09/07 10:03:26;;;;;;;10.55;4.55;;;;;;;;;;5031229;28;20475;-69
2023/09/07 10:05:52;;;;;;;8.35;3.83;;;;;;;;;;5031315;28;20061;-67
2023/09/07 10:08:18;;;;;;;10.98;4.47;;;;;;;;;;5030429;28;20029;-67
2023/09/07 10:10:46;;;;;;;9.90;4.63;;;;;;;;;;5030834;28;20052;-68
2023/09/07 10:13:13;;;;;;;10.43;4.55;;;;;;;;;;5030030;28;20041;-69
2023/09/07 10:15:41;;;;;;;9.90;4.47;;;;;;;;;;5030207;28;20033;-67
2023/09/07 10:18:08;;;;;;;13.98;4.35;;;;;;;;;;5029851;28;20025;-68
2023/09/07 10:20:52;;;;;;;14.20;4.93;;;;;;;;;;5031214;28;20048;-68
2023/09/07 10:23:18;;;;;;;10.65;4.10;;;;;;;;;;5031873;28;20134;-69
2023/09/07 10:25:48;;;;;;;11.18;4.20;;;;;;;;;;5029175;28;20435;-69
2023/09/07 10:28:20;;;;;;;11.18;4.10;;;;;;;;;;5013662;28;20014;-68
2023/09/07 10:30:45;;;;;;;9.73;3.95;;;;;;;;;;5023993;28;20030;-66
2023/09/07 10:33:20;;;;;;;7.07;3.88;;;;;;;;;;5028886;28;20479;-64
2023/09/07 10:35:46;;;;;;;8.95;4.15;;;;;;;;;;5029226;28;20525;-68
2023/09/07 10:38:13;;;;;;;9.55;4.20;;;;;;;;;;5029052;28;20487;-68
2023/09/07 10:40:39;;;;;;;8.00;3.73;;;;;;;;;;5028874;28;20029;-67
2023/09/07 10:43:04;;;;;;;8.90;3.83;;;;;;;;;;5028759;28;20052;-64
2023/09/07 10:45:29;;;;;;;8.70;3.63;;;;;;;;;;5024036;28;20021;-68
2023/09/07 10:47:55;;;;;;;6.50;3.30;;;;;;;;;;5029526;28;20540;-66
2023/09/07 10:50:20;;;;;;;12.20;3.70;;;;;;;;;;5029296;28;20533;-63
2023/09/07 10:52:45;;;;;;;9.77;3.40;;;;;;;;;;5024179;28;20014;-66
2023/09/07 10:55:11;;;;;;;9.18;3.40;;;;;;;;;;5026065;28;20848;-66
2023/09/07 10:57:45;;;;;;;13.07;4.13;;;;;;;;;;5028890;28;20376;-65
2023/09/07 11:00:12;;;;;;;11.10;3.85;;;;;;;;;;5028551;28;20095;-65
2023/09/07 11:02:38;;;;;;;18.40;4.20;;;;;;;;;;5027854;28;20099;-67
2023/09/07 11:05:04;;;;;;;7.28;3.13;;;;;;;;;;5027717;28;20041;-62
2023/09/07 11:07:29;;;;;;;10.23;3.80;;;;;;;;;;5029203;28;20021;-66
2023/09/07 11:09:54;;;;;;;11.02;3.47;;;;;;;;;;5030404;28;20098;-65
2023/09/07 11:12:21;;;;;;;6.00;2.92;;;;;;;;;;5030228;28;20028;-67
2023/09/07 11:14:50;;;;;;;14.52;3.42;;;;;;;;;;5030161;28;20286;-68
2023/09/07 11:17:15;;;;;;;11.85;3.42;;;;;;;;;;5028924;28;20078;-67
2023/09/07 11:19:41;;;;;;;10.05;3.33;;;;;;;;;;5029404;28;20033;-67
2023/09/07 11:22:09;;;;;;;9.15;3.58;;;;;;;;;;5024478;28;20026;-68
2023/09/07 11:24:34;;;;;;;8.93;3.08;;;;;;;;;;5027307;28;20017;-68
2023/09/07 11:27:00;;;;;;;9.77;3.78;;;;;;;;;;5027835;28;20048;-68
2023/09/07 11:29:25;;;;;;;12.38;3.05;;;;;;;;;;5018260;28;20506;-66
2023/09/07 11:31:51;;;;;;;8.30;3.25;;;;;;;;;;5021100;28;20386;-68
2023/09/07 11:34:16;;;;;;;8.30;3.07;;;;;;;;;;5029079;28;20025;-68
2023/09/07 11:36:42;;;;;;;14.17;3.60;;;;;;;;;;5029504;28;20259;-68
2023/09/07 11:39:11;;;;;;;6.43;2.95;;;;;;;;;;5029714;28;20273;-68
2023/09/07 11:41:38;;;;;;;8.90;3.33;;;;;;;;;;5029013;28;20029;-68
2023/09/07 11:44:03;;;;;;;16.25;4.75;;;;;;;;;;5028166;28;20014;-63
2023/09/07 11:46:28;;;;;;;6.15;2.95;;;;;;;;;;5025139;28;20079;-68
2023/09/07 11:48:53;;;;;;;9.20;2.90;;;;;;;;;;5029176;28;20017;-67
2023/09/07 11:51:18;;;;;;;8.50;3.17;;;;;;;;;;5029954;28;20067;-68
2023/09/07 11:53:44;;;;;;;11.80;2.93;;;;;;;;;;5029253;28;20363;-67
2023/09/07 11:56:09;;;;;;;8.40;3.45;;;;;;;;;;5028457;28;20744;-68
2023/09/07 11:58:34;;;;;;;7.73;3.10;;;;;;;;;;5028837;28;20417;-65
2023/09/07 12:01:00;;;;;;;7.63;3.25;;;;;;;;;;5028059;28;20795;-67
2023/09/07 12:03:25;;;;;;;11.00;3.50;;;;;;;;;;5028779;28;20029;-67
2023/09/07 12:05:51;;;;;;;9.82;3.72;;;;;;;;;;5028358;28;20386;-68
2023/09/07 12:08:16;;;;;;;9.57;3.58;;;;;;;;;;5028284;28;20057;-68
2023/09/07 12:10:41;;;;;;;7.68;3.45;;;;;;;;;;5028141;28;20024;-69
2023/09/07 12:13:06;;;;;;;8.77;3.00;;;;;;;;;;5028382;28;20281;-67
2023/09/07 12:15:32;;;;;;;7.82;3.75;;;;;;;;;;5028923;28;20486;-66
2023/09/07 12:17:57;;;;;;;8.57;3.13;;;;;;;;;;5027109;28;20025;-68
2023/09/07 12:20:22;;;;;;;6.40;3.28;;;;;;;;;;5029202;28;20022;-65
2023/09/07 12:22:48;;;;;;;10.02;3.35;;;;;;;;;;5029105;28;20112;-67
2023/09/07 12:25:15;;;;;;;7.78;3.13;;;;;;;;;;5028966;28;20024;-65
2023/09/07 12:27:42;;;;;;;9.60;3.15;;;;;;;;;;5027519;28;20506;-67
2023/09/07 12:30:12;;;;;;;7.57;3.45;;;;;;;;;;5019052;28;20502;-66
2023/09/07 12:32:37;;;;;;;7.68;3.10;;;;;;;;;;5028457;28;20022;-67
2023/09/07 12:35:05;;;;;;;18.60;3.35;;;;;;;;;;5026239;28;20063;-69
2023/09/07 12:37:30;;;;;;;6.50;2.80;;;;;;;;;;5028002;28;20021;-68
2023/09/07 12:39:55;;;;;;;8.82;3.30;;;;;;;;;;5039298;23;20045;-67
2023/09/07 12:42:21;;;;;;;8.15;3.00;;;;;;;;;;5025174;28;20017;-70
2023/09/07 12:44:46;;;;;;;7.45;3.10;;;;;;;;;;5024454;28;20021;-70
2023/09/07 12:47:12;;;;;;;14.67;3.27;;;;;;;;;;5022668;28;20032;-70
2023/09/07 12:49:37;;;;;;;5.65;2.75;;;;;;;;;;5024938;28;20247;-70
2023/09/07 12:52:08;;;;;;;5.60;2.50;;;;;;;;;;5026647;28;20031;-67
2023/09/07 12:54:33;;;;;;;10.38;2.90;;;;;;;;;;5026805;28;20285;-67
2023/09/07 12:56:59;;;;;;;7.10;2.65;;;;;;;;;;5021331;28;20053;-70
2023/09/07 12:59:24;;;;;;;7.65;2.67;;;;;;;;;;5021642;28;20025;-67
2023/09/07 13:01:50;;;;;;;5.93;2.70;;;;;;;;;;5030625;28;20025;-69
2023/09/07 13:04:15;;;;;;;8.13;2.75;;;;;;;;;;5030157;28;20258;-68
2023/09/07 13:06:41;;;;;;;6.28;2.88;;;;;;;;;;5029283;28;20225;-71
2023/09/07 13:09:07;;;;;;;7.45;2.90;;;;;;;;;;5030090;28;20466;-70
2023/09/07 13:11:33;;;;;;;7.13;2.72;;;;;;;;;;5030478;28;20029;-67
2023/09/07 13:13:59;;;;;;;7.07;2.47;;;;;;;;;;5029650;28;20021;-71
2023/09/07 13:16:24;;;;;;;6.80;2.65;;;;;;;;;;5030002;28;20036;-70
2023/09/07 13:18:49;;;;;;;8.30;2.58;;;;;;;;;;5028799;28;20029;-70
2023/09/07 13:21:15;;;;;;;10.23;3.22;;;;;;;;;;5030667;28;20014;-68
2023/09/07 13:23:41;;;;;;;8.57;3.13;;;;;;;;;;5031416;28;20137;-69
2023/09/07 13:26:06;;;;;;;12.40;3.17;;;;;;;;;;5029584;28;20033;-70
2023/09/07 13:28:32;;;;;;;18.15;3.53;;;;;;;;;;5029333;28;20022;-67
2023/09/07 13:30:57;;;;;;;14.82;3.47;;;;;;;;;;5027659;28;20104;-71
2023/09/07 13:33:22;;;;;;;7.15;2.90;;;;;;;;;;5029110;28;20446;-69
2023/09/07 13:35:48;;;;;;;10.97;2.93;;;;;;;;;;5029010;28;20017;-70
2023/09/07 13:38:14;;;;;;;6.40;2.88;;;;;;;;;;5030112;28;20255;-70
2023/09/07 13:40:39;;;;;;;7.43;2.80;;;;;;;;;;5029830;28;20033;-69
2023/09/07 13:43:04;;;;;;;6.55;2.40;;;;;;;;;;5024733;28;20412;-64
2023/09/07 13:45:29;;;;;;;6.20;2.47;;;;;;;;;;5016384;28;20459;-71
2023/09/07 13:47:55;;;;;;;12.50;3.40;;;;;;;;;;5029060;28;20759;-68
2023/09/07 13:50:21;;;;;;;7.05;2.75;;;;;;;;;;5024311;28;20018;-71
2023/09/07 13:52:46;;;;;;;8.70;2.95;;;;;;;;;;5019287;28;20100;-68
2023/09/07 13:55:11;;;;;;;8.13;2.60;;;;;;;;;;5029805;28;20018;-68
2023/09/07 13:57:36;;;;;;;7.60;2.70;;;;;;;;;;5027799;28;20518;-69
2023/09/07 14:00:02;;;;;;;7.93;2.50;;;;;;;;;;5028333;28;20117;-71
2023/09/07 14:02:27;;;;;;;4.85;2.47;;;;;;;;;;5022028;28;20290;-73
2023/09/07 14:04:52;;;;;;;6.40;2.73;;;;;;;;;;5019610;28;20266;-71
2023/09/07 14:07:19;;;;;;;5.60;2.70;;;;;;;;;;5027600;28;20271;-75
2023/09/07 14:09:44;;;;;;;8.07;3.50;;;;;;;;;;5027798;28;20126;-69
2023/09/07 14:12:10;;;;;;;7.70;2.72;;;;;;;;;;5028233;28;20301;-70
2023/09/07 14:14:35;;;;;;;6.22;2.85;;;;;;;;;;5027990;28;20036;-71
2023/09/07 14:17:01;;;;;;;6.53;2.55;;;;;;;;;;5027777;28;20020;-70
2023/09/07 14:19:30;;;;;;;8.60;3.00;;;;;;;;;;5028217;28;20110;-71
2023/09/07 14:21:56;;;;;;;6.40;2.40;;;;;;;;;;5028542;28;20448;-72
2023/09/07 14:24:21;;;;;;;11.82;2.95;;;;;;;;;;5022521;28;20067;-71
2023/09/07 14:26:47;;;;;;;17.10;3.78;;;;;;;;;;5021572;28;20061;-72